Time;durP1;ratioP1;P1;durP2;ratioP2;P2;SDS_P1;SDS_P2;PMS_P1;PMS_P2;Temp;Humidity;BMP_temperature;BMP_pressure;BME280_temperature;BME280_humidity;BME280_pressure;Samples;Min_cycle;Max_cycle;Signal;HPM_P1;HPM_P2
2023/02/24 00:02:06;;;;;;;14.37;5.00;;;9.50;98.00;;;;;;5053740;28;20457;-69
2023/02/24 00:04:37;;;;;;;8.33;4.17;;;9.50;98.00;;;;;;5053171;28;20472;-69
2023/02/24 00:07:04;;;;;;;7.43;3.77;;;9.50;98.00;;;;;;5054614;28;20450;-70
2023/02/24 00:09:32;;;;;;;10.70;4.73;;;9.50;98.00;;;;;;5054102;28;21013;-69
2023/02/24 00:12:01;;;;;;;12.23;4.80;;;9.40;98.00;;;;;;5054206;28;20459;-70
2023/02/24 00:14:30;;;;;;;9.73;4.70;;;9.30;98.00;;;;;;5052547;28;20469;-69
2023/02/24 00:16:58;;;;;;;16.17;4.87;;;9.40;98.00;;;;;;5054269;28;20477;-69
2023/02/24 00:19:31;;;;;;;10.40;5.07;;;9.50;98.00;;;;;;5052333;28;20455;-69
2023/02/24 00:21:58;;;;;;;8.20;3.87;;;9.70;98.00;;;;;;5053907;28;20539;-69
2023/02/24 00:24:26;;;;;;;12.13;5.30;;;9.80;98.00;;;;;;5053800;28;20498;-70
2023/02/24 00:26:58;;;;;;;13.97;5.77;;;9.80;98.00;;;;;;5053859;28;20794;-69
2023/02/24 00:29:25;;;;;;;9.70;4.30;;;9.80;98.00;;;;;;5053813;28;20452;-70
2023/02/24 00:31:57;;;;;;;10.07;4.40;;;9.70;98.00;;;;;;5052446;28;20959;-69
2023/02/24 00:34:26;;;;;;;11.23;5.50;;;9.70;98.00;;;;;;5053647;28;20449;-70
2023/02/24 00:36:53;;;;;;;12.07;5.60;;;9.70;98.00;;;;;;5053643;28;20476;-69
2023/02/24 00:39:27;;;;;;;13.47;5.23;;;9.60;98.00;;;;;;5053636;28;20476;-70
2023/02/24 00:41:57;;;;;;;11.73;5.27;;;9.50;98.00;;;;;;5052581;28;20482;-69
2023/02/24 00:44:24;;;;;;;15.13;5.40;;;9.50;98.00;;;;;;5053627;28;20509;-70
2023/02/24 00:46:51;;;;;;;12.63;5.53;;;9.50;98.00;;;;;;5052343;28;20458;-70
2023/02/24 00:49:23;;;;;;;8.80;4.40;;;9.50;98.00;;;;;;5053401;28;20458;-69
2023/02/24 00:51:53;;;;;;;16.30;5.30;;;9.50;98.00;;;;;;5053627;28;20876;-69
2023/02/24 00:54:22;;;;;;;10.50;4.50;;;9.50;98.00;;;;;;5053550;28;20555;-69
2023/02/24 00:56:49;;;;;;;15.83;5.50;;;9.50;98.00;;;;;;5053580;28;20806;-69
2023/02/24 00:59:19;;;;;;;12.43;4.90;;;9.40;98.00;;;;;;5052382;28;20550;-70
2023/02/24 01:01:48;;;;;;;12.43;4.47;;;9.40;98.00;;;;;;5053569;28;21271;-69
2023/02/24 01:04:16;;;;;;;10.53;5.20;;;9.40;98.00;;;;;;5052434;28;20458;-70
2023/02/24 01:06:44;;;;;;;18.80;6.60;;;9.50;98.00;;;;;;5053037;28;20953;-70
2023/02/24 01:09:14;;;;;;;10.30;5.40;;;9.60;98.00;;;;;;5053205;28;20450;-69
2023/02/24 01:12:37;;;;;;;11.70;5.33;;;9.70;98.00;;;;;;5053195;28;20457;-69
2023/02/24 01:14:50;;;;;;;11.90;4.90;;;9.70;98.00;;;;;;5052729;28;20531;-70
2023/02/24 01:17:20;;;;;;;12.73;5.30;;;9.60;98.00;;;;;;5052899;28;20455;-69
2023/02/24 01:19:49;;;;;;;16.50;6.90;;;9.60;98.00;;;;;;5052685;28;20471;-69
2023/02/24 01:22:17;;;;;;;13.67;5.70;;;9.60;98.00;;;;;;5052708;28;20543;-70
2023/02/24 01:24:46;;;;;;;11.60;5.50;;;9.60;98.00;;;;;;5052716;28;20468;-69
2023/02/24 01:27:17;;;;;;;10.33;4.80;;;9.50;98.00;;;;;;5052802;28;20456;-69
2023/02/24 01:29:44;;;;;;;15.03;5.17;;;9.50;98.00;;;;;;5051570;28;20527;-69
2023/02/24 01:32:17;;;;;;;12.77;5.10;;;9.50;98.00;;;;;;5051396;28;20459;-69
2023/02/24 01:34:44;;;;;;;11.57;4.90;;;9.40;98.00;;;;;;5019243;28;20545;-69
2023/02/24 01:37:15;;;;;;;17.03;5.30;;;9.40;98.00;;;;;;5052350;28;20469;-69
2023/02/24 01:39:42;;;;;;;17.23;5.60;;;9.50;98.00;;;;;;5052539;28;20544;-69
2023/02/24 01:42:15;;;;;;;13.73;5.80;;;9.50;98.00;;;;;;5052573;28;20588;-69
2023/02/24 01:45:13;;;;;;;8.83;4.40;;;9.60;98.00;;;;;;5052392;28;21005;-69
2023/02/24 01:47:42;;;;;;;14.97;5.60;;;9.70;98.00;;;;;;5052541;28;20463;-70
2023/02/24 01:50:14;;;;;;;15.37;5.80;;;9.60;98.00;;;;;;5052347;28;20449;-69
2023/02/24 01:52:43;;;;;;;13.87;5.23;;;9.50;98.00;;;;;;5052674;28;20479;-69
2023/02/24 01:55:18;;;;;;;10.60;5.70;;;9.60;98.00;;;;;;5052306;28;20457;-69
2023/02/24 01:57:48;;;;;;;11.93;5.60;;;9.60;98.00;;;;;;5052754;28;20469;-69
2023/02/24 02:03:28;;;;;;;11.40;5.30;;;9.90;98.00;;;;;;5010306;28;20456;-69
2023/02/24 02:06:00;;;;;;;13.80;5.87;;;10.00;98.00;;;;;;5046061;28;20462;-69
2023/02/24 02:08:28;;;;;;;12.60;5.10;;;10.00;98.00;;;;;;5052012;28;20460;-69
2023/02/24 02:10:58;;;;;;;14.67;5.33;;;10.00;98.00;;;;;;5051825;28;20477;-70
2023/02/24 02:13:28;;;;;;;11.80;5.50;;;10.00;98.00;;;;;;5052014;28;20532;-69
2023/02/24 02:16:31;;;;;;;13.90;5.73;;;10.00;98.00;;;;;;5051868;28;20891;-70
2023/02/24 02:19:11;;;;;;;9.53;4.80;;;9.90;98.00;;;;;;5048010;28;20454;-70
2023/02/24 02:22:07;;;;;;;12.30;5.73;;;9.90;98.00;;;;;;5051414;28;20493;-70
2023/02/24 02:24:52;;;;;;;10.57;5.30;;;9.80;98.00;;;;;;5051272;28;20873;-69
2023/02/24 02:27:28;;;;;;;12.37;5.70;;;9.70;98.00;;;;;;5049815;28;20465;-70
2023/02/24 02:30:27;;;;;;;11.57;5.43;;;9.60;98.00;;;;;;5051116;28;20470;-70
2023/02/24 02:33:32;;;;;;;9.07;5.30;;;9.50;98.00;;;;;;5051443;28;20512;-69
2023/02/24 02:36:12;;;;;;;9.20;4.30;;;9.50;98.00;;;;;;5051579;28;20541;-69
2023/02/24 02:38:49;;;;;;;14.40;5.90;;;9.40;98.00;;;;;;5051765;28;20463;-69
2023/02/24 02:41:22;;;;;;;13.10;5.17;;;9.40;98.00;;;;;;5050350;28;20543;-69
2023/02/24 02:43:52;;;;;;;10.20;4.83;;;9.40;98.00;;;;;;5051799;28;20460;-70
2023/02/24 02:46:33;;;;;;;15.00;5.90;;;9.50;98.00;;;;;;5051863;28;20968;-69
2023/02/24 02:49:06;;;;;;;15.13;4.80;;;9.60;98.00;;;;;;5051714;28;20457;-69
2023/02/24 02:51:40;;;;;;;10.60;5.33;;;9.70;98.00;;;;;;5051756;28;20861;-70
2023/02/24 02:54:13;;;;;;;8.93;5.13;;;9.60;98.00;;;;;;5051917;28;20466;-70
2023/02/24 02:56:45;;;;;;;12.37;5.13;;;9.60;98.00;;;;;;5051906;28;20477;-69
2023/02/24 02:59:21;;;;;;;13.83;5.20;;;9.70;98.00;;;;;;5051526;28;20461;-69
2023/02/24 03:01:50;;;;;;;11.87;5.20;;;9.70;98.00;;;;;;5051354;28;20522;-70
2023/02/24 03:04:21;;;;;;;16.83;6.37;;;9.70;98.00;;;;;;5051540;28;20460;-70
2023/02/24 03:06:54;;;;;;;15.77;5.10;;;9.60;98.00;;;;;;5050273;28;20463;-69
2023/02/24 03:09:28;;;;;;;7.97;4.60;;;9.60;98.00;;;;;;5051285;28;20995;-69
2023/02/24 03:12:00;;;;;;;9.00;4.90;;;9.60;98.00;;;;;;5051480;28;20457;-70
2023/02/24 03:14:33;;;;;;;11.47;6.03;;;9.60;98.00;;;;;;5051222;28;20532;-69
2023/02/24 03:17:03;;;;;;;14.47;6.00;;;9.60;98.00;;;;;;5051291;28;21129;-69
2023/02/24 03:19:36;;;;;;;9.30;5.23;;;9.60;98.00;;;;;;5051150;28;20540;-70
2023/02/24 03:22:12;;;;;;;16.70;6.23;;;9.60;98.00;;;;;;5051114;28;20862;-69
2023/02/24 03:24:39;;;;;;;10.97;5.53;;;9.60;98.00;;;;;;5050139;28;21006;-69
2023/02/24 03:27:13;;;;;;;11.27;5.13;;;9.60;98.00;;;;;;5053470;28;20464;-69
2023/02/24 03:29:47;;;;;;;12.87;5.03;;;9.60;98.00;;;;;;5055089;28;20462;-70
2023/02/24 03:32:21;;;;;;;13.40;6.27;;;9.60;98.00;;;;;;5054808;28;20833;-69
2023/02/24 03:34:55;;;;;;;14.83;6.00;;;9.60;98.00;;;;;;5054839;28;20501;-69
2023/02/24 03:37:26;;;;;;;13.00;5.67;;;9.40;98.00;;;;;;5054788;28;20462;-69
2023/02/24 03:39:56;;;;;;;13.50;5.37;;;9.30;98.00;;;;;;5054866;28;20486;-70
2023/02/24 03:42:25;;;;;;;15.50;6.00;;;9.30;98.00;;;;;;5054804;28;20517;-69
2023/02/24 03:44:57;;;;;;;16.67;5.87;;;9.30;98.00;;;;;;5054567;28;20479;-69
2023/02/24 03:47:25;;;;;;;13.43;5.27;;;9.40;98.00;;;;;;5053618;28;20836;-70
2023/02/24 03:49:52;;;;;;;20.10;6.50;;;9.30;98.00;;;;;;5054838;28;20476;-69
2023/02/24 03:52:32;;;;;;;12.13;5.50;;;9.30;98.00;;;;;;5054676;28;20978;-70
2023/02/24 03:55:14;;;;;;;12.60;5.20;;;9.40;98.00;;;;;;5054916;28;20547;-69
2023/02/24 03:57:58;;;;;;;13.70;5.80;;;9.60;98.00;;;;;;5054506;28;20454;-70
2023/02/24 04:00:37;;;;;;;15.63;5.90;;;9.60;98.00;;;;;;5053518;28;20981;-69
2023/02/24 04:03:24;;;;;;;12.80;5.50;;;9.50;98.00;;;;;;5054536;28;20463;-69
2023/02/24 04:06:01;;;;;;;9.97;5.10;;;9.50;98.00;;;;;;5053980;28;20931;-69
2023/02/24 04:08:36;;;;;;;10.87;4.70;;;9.60;98.00;;;;;;5054245;28;20517;-70
2023/02/24 04:11:12;;;;;;;13.60;5.90;;;9.60;98.00;;;;;;5054121;28;20571;-70
2023/02/24 04:13:43;;;;;;;13.97;5.93;;;9.60;98.00;;;;;;5054048;28;20977;-70
2023/02/24 04:16:17;;;;;;;13.57;6.00;;;9.60;98.00;;;;;;5054040;28;20488;-70
2023/02/24 04:18:50;;;;;;;13.80;6.43;;;9.60;98.00;;;;;;5054293;28;20507;-70
2023/02/24 04:21:19;;;;;;;16.77;7.43;;;9.50;98.00;;;;;;5053897;28;20508;-69
2023/02/24 04:23:48;;;;;;;12.53;6.10;;;9.50;98.00;;;;;;5053786;28;20458;-69
2023/02/24 04:26:18;;;;;;;13.40;5.87;;;9.50;98.00;;;;;;5053867;28;20463;-70
2023/02/24 04:28:47;;;;;;;19.37;6.80;;;9.60;98.00;;;;;;5054040;28;21211;-70
2023/02/24 04:31:17;;;;;;;17.40;6.07;;;9.50;98.00;;;;;;5053800;28;20539;-69
2023/02/24 04:33:49;;;;;;;14.87;5.90;;;9.50;98.00;;;;;;5054123;28;20468;-69
2023/02/24 04:36:17;;;;;;;16.80;6.37;;;9.50;98.00;;;;;;5053760;28;20541;-69
2023/02/24 04:38:46;;;;;;;14.70;7.00;;;9.50;98.00;;;;;;5052250;28;20949;-69
2023/02/24 04:41:19;;;;;;;18.17;6.40;;;9.50;98.00;;;;;;5053698;28;20484;-70
2023/02/24 04:43:48;;;;;;;20.20;6.17;;;9.60;98.00;;;;;;5053785;28;20468;-69
2023/02/24 04:46:17;;;;;;;12.23;5.37;;;9.80;98.00;;;;;;5053698;28;20457;-70
2023/02/24 04:48:44;;;;;;;11.67;5.30;;;9.90;98.00;;;;;;5053710;28;20466;-70
2023/02/24 04:51:12;;;;;;;10.80;4.83;;;10.10;98.00;;;;;;5053687;28;20482;-70
2023/02/24 04:53:39;;;;;;;12.10;5.57;;;10.10;98.00;;;;;;5053785;28;20457;-69
2023/02/24 04:56:08;;;;;;;15.27;6.33;;;10.10;98.00;;;;;;5053433;28;20450;-69
2023/02/24 04:58:38;;;;;;;15.33;6.20;;;10.20;98.00;;;;;;5052052;28;20541;-69
2023/02/24 05:01:10;;;;;;;15.87;6.27;;;10.20;98.00;;;;;;5053104;28;20468;-69
2023/02/24 05:03:41;;;;;;;9.63;5.00;;;10.20;98.00;;;;;;5053193;28;20456;-69
2023/02/24 05:06:13;;;;;;;13.50;6.00;;;10.20;98.00;;;;;;5053028;28;20458;-69
2023/02/24 05:08:40;;;;;;;15.07;5.70;;;10.20;98.00;;;;;;5052129;28;20454;-69
2023/02/24 05:11:14;;;;;;;11.57;5.50;;;10.00;98.00;;;;;;5051324;28;20464;-70
2023/02/24 05:13:45;;;;;;;20.17;5.70;;;9.90;98.00;;;;;;5051974;28;20454;-69
2023/02/24 05:16:15;;;;;;;9.23;4.90;;;9.90;98.00;;;;;;5052793;28;20924;-70
2023/02/24 05:18:43;;;;;;;17.87;6.50;;;9.80;98.00;;;;;;5052878;28;20462;-69
2023/02/24 05:23:58;;;;;;;13.83;6.20;;;9.70;98.00;;;;;;5052962;28;20441;-69
2023/02/24 05:26:27;;;;;;;16.63;5.83;;;9.70;98.00;;;;;;5052720;28;20775;-69
2023/02/24 05:28:58;;;;;;;16.47;5.20;;;9.70;98.00;;;;;;5052720;28;20446;-69
2023/02/24 05:31:27;;;;;;;17.30;6.30;;;9.70;98.00;;;;;;5052690;28;20971;-69
2023/02/24 05:33:57;;;;;;;14.37;6.97;;;9.60;98.00;;;;;;5052765;28;20474;-69
2023/02/24 05:36:25;;;;;;;14.73;5.60;;;9.60;98.00;;;;;;5052522;28;20465;-70
2023/02/24 05:38:56;;;;;;;17.30;6.30;;;9.60;98.00;;;;;;5051464;28;20464;-70
2023/02/24 05:41:31;;;;;;;17.73;6.27;;;9.60;98.00;;;;;;5052396;28;20477;-69
2023/02/24 05:44:03;;;;;;;12.33;5.37;;;9.60;98.00;;;;;;5052580;28;20461;-70
2023/02/24 05:46:33;;;;;;;16.40;6.63;;;9.60;98.00;;;;;;5052639;28;20829;-69
2023/02/24 05:49:02;;;;;;;16.30;6.10;;;9.80;98.00;;;;;;5052231;28;20450;-70
2023/02/24 05:51:34;;;;;;;15.70;6.50;;;9.90;98.00;;;;;;5052552;28;20460;-69
2023/02/24 05:54:03;;;;;;;14.80;4.90;;;9.80;98.00;;;;;;5051539;28;20460;-70
2023/02/24 05:56:32;;;;;;;18.37;7.03;;;9.70;98.00;;;;;;5052137;28;20460;-70
2023/02/24 05:59:02;;;;;;;13.63;6.23;;;9.60;98.00;;;;;;5052128;28;20494;-70
2023/02/24 06:01:30;;;;;;;17.13;6.30;;;9.60;98.00;;;;;;5051793;28;20504;-70
2023/02/24 06:04:04;;;;;;;16.23;6.27;;;9.60;98.00;;;;;;5052130;28;20559;-70
2023/02/24 06:06:35;;;;;;;18.53;6.50;;;9.50;98.00;;;;;;5051921;28;20804;-70
2023/02/24 06:09:06;;;;;;;15.70;6.80;;;9.60;98.00;;;;;;5051389;28;20458;-70
2023/02/24 06:11:34;;;;;;;20.10;6.23;;;9.70;98.00;;;;;;5051905;28;20446;-70
2023/02/24 06:14:05;;;;;;;14.47;6.27;;;9.70;98.00;;;;;;5050643;28;20566;-70
2023/02/24 06:16:34;;;;;;;13.50;5.80;;;9.60;98.00;;;;;;5051927;28;20460;-69
2023/02/24 06:19:01;;;;;;;18.70;5.90;;;9.70;98.00;;;;;;5050583;28;20465;-69
2023/02/24 06:21:29;;;;;;;18.90;6.43;;;9.90;98.00;;;;;;5051742;28;20454;-69
2023/02/24 06:23:57;;;;;;;23.50;5.97;;;9.90;98.00;;;;;;5050523;28;21001;-69
2023/02/24 06:26:28;;;;;;;17.60;6.53;;;9.80;98.00;;;;;;5050503;28;20560;-69
2023/02/24 06:28:56;;;;;;;14.43;6.13;;;9.70;98.00;;;;;;5050711;28;20532;-69
2023/02/24 06:31:26;;;;;;;18.43;7.07;;;9.80;98.00;;;;;;5051731;28;20476;-70
2023/02/24 06:33:54;;;;;;;21.17;6.40;;;9.80;98.00;;;;;;5052067;28;20501;-69
2023/02/24 06:36:22;;;;;;;14.13;6.43;;;9.80;98.00;;;;;;5051848;28;20457;-70
2023/02/24 06:38:51;;;;;;;17.87;6.07;;;9.80;98.00;;;;;;5052116;28;20940;-68
2023/02/24 06:41:18;;;;;;;20.13;6.37;;;9.80;98.00;;;;;;5051903;28;20485;-69
2023/02/24 06:43:47;;;;;;;12.83;6.30;;;9.70;98.00;;;;;;5052077;28;20498;-69
2023/02/24 06:46:16;;;;;;;19.83;7.10;;;9.60;98.00;;;;;;5051883;28;20978;-69
2023/02/24 06:48:46;;;;;;;14.23;5.37;;;9.60;98.00;;;;;;5052200;28;20453;-69
2023/02/24 06:51:15;;;;;;;13.77;5.77;;;9.70;98.00;;;;;;5051776;28;20514;-69
2023/02/24 06:53:43;;;;;;;20.17;7.10;;;9.70;98.00;;;;;;5052025;28;20482;-70
2023/02/24 06:56:14;;;;;;;15.60;5.77;;;9.60;98.00;;;;;;5050122;28;20458;-70
2023/02/24 06:58:43;;;;;;;15.07;5.60;;;9.50;98.00;;;;;;5051676;28;20459;-69
2023/02/24 07:01:15;;;;;;;23.13;6.80;;;9.50;98.00;;;;;;5052273;28;20524;-67
2023/02/24 07:04:02;;;;;;;10.83;5.33;;;9.40;98.00;;;;;;5055722;28;20899;-65
2023/02/24 07:06:29;;;;;;;13.67;5.63;;;9.40;98.00;;;;;;5055303;28;20919;-64
2023/02/24 07:08:58;;;;;;;16.77;5.70;;;9.40;98.00;;;;;;5055523;28;20961;-65
2023/02/24 07:11:27;;;;;;;15.50;6.50;;;9.50;98.00;;;;;;5055393;28;20456;-64
2023/02/24 07:13:56;;;;;;;14.87;6.57;;;9.50;98.00;;;;;;5055485;28;20453;-67
2023/02/24 07:16:24;;;;;;;14.60;6.13;;;9.50;98.00;;;;;;5055394;28;20454;-66
2023/02/24 07:18:55;;;;;;;15.13;5.77;;;9.50;98.00;;;;;;5055379;28;20549;-65
2023/02/24 07:21:24;;;;;;;13.27;5.23;;;9.60;98.00;;;;;;5055239;28;20548;-68
2023/02/24 07:23:55;;;;;;;22.43;6.70;;;9.80;98.00;;;;;;5055245;28;20882;-65
2023/02/24 07:26:23;;;;;;;11.43;5.03;;;9.70;98.00;;;;;;5053971;28;20484;-65
2023/02/24 07:28:53;;;;;;;13.43;6.63;;;9.70;98.00;;;;;;5055286;28;20464;-64
2023/02/24 07:31:22;;;;;;;12.30;5.40;;;9.70;98.00;;;;;;5055172;28;20509;-65
2023/02/24 07:33:56;;;;;;;20.33;6.53;;;9.80;98.00;;;;;;5055245;28;20530;-66
2023/02/24 07:36:28;;;;;;;21.73;6.83;;;9.80;98.00;;;;;;5055009;28;20461;-65
2023/02/24 07:38:58;;;;;;;13.57;5.53;;;9.80;98.00;;;;;;5055174;28;20960;-65
2023/02/24 07:41:26;;;;;;;17.47;6.57;;;9.80;98.00;;;;;;5055258;28;20577;-66
2023/02/24 07:43:54;;;;;;;14.93;5.97;;;9.70;98.00;;;;;;5053958;28;20577;-64
2023/02/24 07:46:24;;;;;;;17.30;6.77;;;9.60;98.00;;;;;;5055120;28;20536;-64
2023/02/24 07:48:55;;;;;;;15.33;5.90;;;9.60;98.00;;;;;;5053324;28;20461;-65
2023/02/24 07:51:25;;;;;;;22.23;6.20;;;9.60;98.00;;;;;;5054960;28;20860;-65
2023/02/24 07:53:55;;;;;;;17.60;6.07;;;9.70;98.00;;;;;;5054492;28;20450;-65
2023/02/24 07:56:25;;;;;;;22.40;5.33;;;9.90;98.00;;;;;;5054712;28;20462;-65
2023/02/24 07:58:58;;;;;;;8.20;4.70;;;9.90;98.00;;;;;;5054557;28;21010;-67
2023/02/24 08:01:27;;;;;;;13.27;7.40;;;10.00;98.00;;;;;;5054512;28;20528;-65
2023/02/24 08:04:00;;;;;;;17.30;5.80;;;9.90;98.00;;;;;;5053246;28;20485;-65
2023/02/24 08:06:36;;;;;;;12.10;5.60;;;9.90;98.00;;;;;;5053864;28;20548;-66
2023/02/24 08:09:15;;;;;;;17.43;6.27;;;9.90;98.00;;;;;;5053793;28;20478;-65
2023/02/24 08:11:44;;;;;;;21.80;6.90;;;9.90;98.00;;;;;;5052150;28;20471;-65
2023/02/24 08:14:13;;;;;;;15.60;6.60;;;9.90;98.00;;;;;;5053677;28;20460;-64
2023/02/24 08:16:42;;;;;;;17.20;6.57;;;9.90;98.00;;;;;;5053430;28;20498;-65
2023/02/24 08:19:12;;;;;;;14.70;6.87;;;10.00;98.00;;;;;;5053619;28;20527;-65
2023/02/24 08:21:46;;;;;;;19.47;5.30;;;10.00;98.00;;;;;;5053561;28;20990;-65
2023/02/24 08:24:18;;;;;;;11.37;5.90;;;9.90;98.00;;;;;;5053480;28;20846;-66
2023/02/24 08:26:52;;;;;;;18.43;5.67;;;9.80;98.00;;;;;;5053538;28;20454;-66
2023/02/24 08:29:19;;;;;;;16.73;6.40;;;9.70;98.00;;;;;;5053474;28;20481;-65
2023/02/24 08:31:48;;;;;;;17.73;6.60;;;9.70;98.00;;;;;;5046661;28;21059;-65
2023/02/24 08:34:17;;;;;;;20.87;6.00;;;9.70;98.00;;;;;;5042003;28;20449;-65
2023/02/24 08:36:47;;;;;;;14.90;5.57;;;9.60;98.00;;;;;;5043842;28;20481;-64
2023/02/24 08:39:15;;;;;;;16.67;6.03;;;9.60;98.00;;;;;;5049954;28;20790;-66
2023/02/24 08:41:49;;;;;;;14.90;5.30;;;9.50;98.00;;;;;;5052955;28;21031;-64
2023/02/24 08:44:19;;;;;;;16.13;6.97;;;9.50;98.00;;;;;;5053114;28;20484;-64
2023/02/24 08:46:48;;;;;;;26.37;7.93;;;9.40;98.00;;;;;;5053396;28;20537;-64
2023/02/24 08:49:17;;;;;;;11.77;5.83;;;9.60;98.00;;;;;;5051492;28;20465;-65
2023/02/24 08:51:47;;;;;;;20.33;7.10;;;9.60;98.00;;;;;;5033461;28;20481;-66
2023/02/24 08:54:17;;;;;;;21.30;6.77;;;9.50;98.00;;;;;;5039939;28;20461;-66
2023/02/24 08:56:47;;;;;;;22.97;7.70;;;9.60;98.00;;;;;;5052822;28;21031;-66
2023/02/24 08:59:37;;;;;;;17.80;5.67;;;9.60;98.00;;;;;;5051601;28;20886;-64
2023/02/24 09:02:23;;;;;;;13.67;5.30;;;9.60;98.00;;;;;;5052859;28;20916;-66
2023/02/24 09:04:53;;;;;;;24.47;6.87;;;9.80;98.00;;;;;;5052841;28;20455;-64
2023/02/24 09:07:23;;;;;;;21.30;6.40;;;9.80;98.00;;;;;;5052681;28;20467;-66
2023/02/24 09:09:55;;;;;;;27.13;7.87;;;9.80;98.00;;;;;;5052182;28;20454;-66
2023/02/24 09:12:24;;;;;;;12.63;5.87;;;9.80;98.00;;;;;;5052588;28;20462;-65
2023/02/24 09:14:55;;;;;;;22.20;5.97;;;9.90;98.00;;;;;;5052378;28;20510;-66
2023/02/24 09:23:02;;;;;;;10.27;4.97;;;9.90;98.00;;;;;;5032606;28;20678;-65
2023/02/24 09:25:43;;;;;;;25.57;7.10;;;9.90;98.00;;;;;;5031748;28;20479;-64
2023/02/24 09:28:15;;;;;;;13.97;5.90;;;10.00;98.00;;;;;;5033379;28;20458;-67
2023/02/24 09:30:52;;;;;;;15.83;5.70;;;10.10;98.00;;;;;;5044391;28;20807;-66
2023/02/24 09:33:21;;;;;;;19.53;6.53;;;10.10;98.00;;;;;;5053049;28;20493;-65
2023/02/24 09:36:01;;;;;;;22.90;7.80;;;10.20;98.00;;;;;;5053005;28;20454;-66
2023/02/24 09:41:31;;;;;;;16.43;6.87;;;10.20;98.00;;;;;;5052986;28;20442;-66
2023/02/24 09:44:06;;;;;;;21.93;6.37;;;10.20;98.00;;;;;;5051637;28;20571;-64
2023/02/24 09:46:39;;;;;;;22.20;7.33;;;10.30;98.00;;;;;;5051731;28;20449;-64
2023/02/24 09:49:16;;;;;;;14.23;5.87;;;10.30;98.00;;;;;;5052776;28;20928;-64
2023/02/24 09:51:52;;;;;;;20.47;7.50;;;10.30;98.00;;;;;;5052691;28;20485;-65
2023/02/24 09:54:23;;;;;;;13.50;6.43;;;10.30;98.00;;;;;;5052211;28;20475;-64
2023/02/24 09:57:07;;;;;;;25.73;7.70;;;10.30;98.00;;;;;;5048511;28;20459;-65
2023/02/24 09:59:59;;;;;;;17.13;6.00;;;10.30;98.00;;;;;;5032875;28;20936;-65
2023/02/24 10:02:42;;;;;;;21.77;6.80;;;10.30;98.00;;;;;;5032486;28;20459;-67
2023/02/24 10:05:22;;;;;;;10.47;5.43;;;10.20;98.00;;;;;;5032365;28;20446;-64
2023/02/24 10:07:52;;;;;;;17.70;6.30;;;10.20;98.00;;;;;;5032663;28;20872;-65
2023/02/24 10:10:26;;;;;;;29.50;7.27;;;10.10;98.00;;;;;;5032744;28;20796;-66
2023/02/24 10:13:01;;;;;;;18.73;5.90;;;10.10;98.00;;;;;;5032807;28;20461;-64
2023/02/24 10:15:49;;;;;;;19.60;6.23;;;10.10;98.00;;;;;;5032466;28;20516;-65
2023/02/24 10:18:27;;;;;;;14.87;5.27;;;10.20;98.00;;;;;;5032476;28;20513;-64
2023/02/24 10:21:01;;;;;;;20.20;7.57;;;10.30;98.00;;;;;;5032825;28;20995;-64
2023/02/24 10:23:43;;;;;;;16.23;6.00;;;10.30;98.00;;;;;;5032450;28;20924;-65
2023/02/24 10:26:30;;;;;;;16.20;6.47;;;10.30;98.00;;;;;;5032602;28;20887;-65
2023/02/24 10:29:07;;;;;;;21.27;7.90;;;10.30;98.00;;;;;;5032486;28;20461;-64
2023/02/24 10:31:46;;;;;;;14.77;7.63;;;10.30;98.00;;;;;;5032521;28;20455;-63
2023/02/24 10:34:24;;;;;;;20.97;7.60;;;10.20;98.00;;;;;;5032676;28;20945;-66
2023/02/24 10:36:51;;;;;;;17.63;6.23;;;10.20;98.00;;;;;;5032408;28;20477;-66
2023/02/24 10:39:24;;;;;;;23.17;7.40;;;10.10;98.00;;;;;;5032346;28;20477;-65
2023/02/24 10:41:56;;;;;;;20.90;6.73;;;10.10;98.00;;;;;;5047343;28;20454;-65
2023/02/24 10:44:24;;;;;;;19.07;7.47;;;10.10;98.00;;;;;;5052169;28;20487;-64
2023/02/24 10:47:10;;;;;;;19.17;6.67;;;10.10;98.00;;;;;;5051943;28;20460;-63
2023/02/24 10:49:55;;;;;;;24.80;6.83;;;10.10;98.00;;;;;;5051734;28;20462;-65
2023/02/24 10:52:35;;;;;;;19.40;6.87;;;10.20;98.00;;;;;;5051667;28;20457;-65
2023/02/24 10:55:26;;;;;;;12.47;5.27;;;10.20;98.00;;;;;;5050652;28;21004;-65
2023/02/24 10:58:05;;;;;;;15.63;6.03;;;10.20;98.00;;;;;;5051489;28;20536;-65
2023/02/24 11:00:59;;;;;;;12.50;4.70;;;10.30;98.00;;;;;;5051651;28;20461;-65
2023/02/24 11:03:40;;;;;;;13.17;5.07;;;10.20;98.00;;;;;;5051288;28;20489;-63
2023/02/24 11:06:29;;;;;;;20.33;6.03;;;10.30;98.00;;;;;;5051626;28;20854;-66
2023/02/24 11:09:18;;;;;;;18.70;6.93;;;10.30;98.00;;;;;;5051395;28;20457;-65
2023/02/24 11:17:25;;;;;;;16.60;5.37;;;10.40;98.00;;;;;;5051014;28;20538;-66
2023/02/24 11:20:09;;;;;;;12.53;4.90;;;10.40;98.00;;;;;;5051046;28;20466;-65
2023/02/24 11:22:40;;;;;;;15.50;5.33;;;10.40;98.00;;;;;;5051110;28;20454;-66
2023/02/24 11:25:13;;;;;;;11.03;5.23;;;10.30;98.00;;;;;;5051193;28;20579;-66
2023/02/24 11:27:45;;;;;;;15.43;5.67;;;10.30;98.00;;;;;;5051232;28;20454;-67
2023/02/24 11:30:23;;;;;;;21.23;5.00;;;10.40;98.00;;;;;;5051179;28;20460;-64
2023/02/24 11:33:22;;;;;;;14.77;6.00;;;10.40;98.00;;;;;;5050085;28;20457;-64
2023/02/24 11:36:04;;;;;;;12.47;5.10;;;10.30;98.00;;;;;;5051150;28;20465;-64
2023/02/24 11:38:39;;;;;;;11.80;4.37;;;10.30;98.00;;;;;;5049862;28;20463;-66
2023/02/24 11:41:15;;;;;;;11.10;4.67;;;10.30;98.00;;;;;;5051256;28;20460;-65
2023/02/24 11:43:54;;;;;;;10.70;3.90;;;10.40;98.00;;;;;;5051280;28;20822;-63
2023/02/24 11:46:26;;;;;;;12.20;5.00;;;10.60;98.00;;;;;;5051057;28;20470;-63
2023/02/24 11:48:58;;;;;;;10.73;4.23;;;10.60;98.00;;;;;;5054511;28;20461;-65
2023/02/24 11:51:29;;;;;;;9.47;4.57;;;10.50;98.00;;;;;;5053347;28;20523;-65
2023/02/24 11:54:02;;;;;;;8.60;3.70;;;10.50;98.00;;;;;;5054744;28;20461;-65
2023/02/24 11:56:33;;;;;;;12.67;5.03;;;10.50;98.00;;;;;;5054245;28;20462;-64
2023/02/24 11:59:07;;;;;;;10.13;4.10;;;10.40;98.00;;;;;;5053215;28;21013;-67
2023/02/24 12:01:41;;;;;;;13.10;4.90;;;10.40;98.00;;;;;;5054347;28;20466;-64
2023/02/24 12:04:17;;;;;;;26.47;6.60;;;10.30;98.00;;;;;;5054486;28;20494;-65
2023/02/24 12:06:55;;;;;;;21.67;5.43;;;10.30;98.00;;;;;;5052822;28;20493;-64
2023/02/24 12:09:29;;;;;;;14.23;4.57;;;10.40;98.00;;;;;;5054279;28;20460;-66
2023/02/24 12:12:01;;;;;;;15.90;5.27;;;10.20;98.00;;;;;;5054239;28;20544;-64
2023/02/24 12:14:39;;;;;;;11.20;5.17;;;10.20;98.00;;;;;;5054230;28;20458;-64
2023/02/24 12:17:17;;;;;;;15.10;4.70;;;10.20;98.00;;;;;;5054101;28;20459;-66
2023/02/24 12:19:56;;;;;;;12.97;4.87;;;10.20;98.00;;;;;;5053886;28;20464;-64
2023/02/24 12:22:26;;;;;;;13.87;5.60;;;10.30;98.00;;;;;;5053837;28;20555;-63
2023/02/24 12:24:53;;;;;;;14.23;5.30;;;10.40;98.00;;;;;;5053896;28;20508;-65
2023/02/24 12:27:33;;;;;;;23.13;7.83;;;10.40;98.00;;;;;;5053766;28;20551;-64
2023/02/24 12:30:32;;;;;;;17.80;6.10;;;10.60;98.00;;;;;;5054010;28;20525;-67
2023/02/24 12:33:19;;;;;;;23.20;7.03;;;10.70;98.00;;;;;;5053844;28;20461;-67
2023/02/24 12:35:55;;;;;;;17.53;5.77;;;11.00;98.00;;;;;;5053974;28;20838;-64
2023/02/24 12:38:37;;;;;;;20.53;5.50;;;11.20;98.00;;;;;;5053677;28;20682;-64
2023/02/24 12:41:16;;;;;;;14.83;5.60;;;11.60;98.00;;;;;;5054148;28;20470;-66
2023/02/24 12:43:51;;;;;;;27.07;5.33;;;11.90;98.00;;;;;;5053873;28;20591;-64
2023/02/24 12:46:24;;;;;;;24.90;6.80;;;12.70;98.00;;;;;;5053628;28;20958;-65
2023/02/24 12:49:14;;;;;;;14.50;5.90;;;13.20;98.00;;;;;;5053404;28;20517;-63
2023/02/24 12:51:51;;;;;;;16.97;5.97;;;13.40;98.00;;;;;;5053593;28;20469;-65
2023/02/24 12:54:27;;;;;;;17.07;5.97;;;13.60;98.00;;;;;;5053354;28;20467;-65
2023/02/24 12:57:05;;;;;;;14.47;5.20;;;13.90;98.00;;;;;;5053435;28;20520;-66
2023/02/24 12:59:38;;;;;;;13.23;5.50;;;13.90;98.00;;;;;;5052080;28;20945;-64
2023/02/24 13:02:15;;;;;;;17.20;5.93;;;14.00;98.00;;;;;;5053145;28;20478;-65
2023/02/24 13:04:54;;;;;;;15.33;5.40;;;13.90;98.00;;;;;;5053397;28;20497;-63
2023/02/24 13:07:58;;;;;;;24.17;6.73;;;13.70;98.00;;;;;;5052114;28;20514;-65
2023/02/24 13:10:35;;;;;;;23.13;5.40;;;13.40;98.00;;;;;;5053327;28;20837;-63
2023/02/24 13:13:10;;;;;;;15.53;6.37;;;13.10;98.00;;;;;;5053226;28;20465;-63
2023/02/24 13:15:48;;;;;;;19.50;5.70;;;13.00;98.00;;;;;;5052918;28;20465;-64
2023/02/24 13:18:24;;;;;;;17.30;5.37;;;12.80;98.00;;;;;;5053008;28;20454;-64
2023/02/24 13:21:06;;;;;;;18.17;6.60;;;12.40;98.00;;;;;;5053103;28;20460;-64
2023/02/24 13:23:33;;;;;;;12.40;4.63;;;12.20;98.00;;;;;;5042180;28;20496;-66
2023/02/24 13:26:01;;;;;;;15.97;5.90;;;12.20;98.00;;;;;;5041020;28;20469;-65
2023/02/24 13:28:32;;;;;;;15.67;4.80;;;12.10;98.00;;;;;;5052836;28;20523;-66
2023/02/24 13:31:02;;;;;;;16.30;6.00;;;12.00;98.00;;;;;;5052826;28;20461;-66
2023/02/24 13:33:34;;;;;;;10.73;4.07;;;11.90;98.00;;;;;;5051597;28;20549;-63
2023/02/24 13:36:16;;;;;;;6.23;3.10;;;12.10;98.00;;;;;;5051782;28;20458;-65